Convent Station, New Jersey
Current Conditions -  °F | °C
As of 3:45 PM on Thursday 20 Nov 2014 (Local Time) from KMMU Reporting Station
Scattered Clouds Scattered Clouds  
Wind Chill: 37°   Ceiling: Unl
Heat Index: 43°   Visibility: 10mi
Dew Point: 19°   Wind: 12mph
Humidity: 39%   Direction: 270°W
Pressure: 29.86"   Gusts: 20mph
Location:  40.7782°N, 74.4415°W
Report Text: KMMU 202045Z COR 27010G17KT 240V290 10SM SCT050 06/M07 A2986
Loading
Personal Weather Stations






























Interactive Weather Map New forecast layout! Learn more

10-Day Weather Forecast

Advertisements
Track Severe Weather on mobile